Time;durP1;ratioP1;P1;durP2;ratioP2;P2;SDS_P1;SDS_P2;PMS_P1;PMS_P2;Temp;Humidity;BMP_temperature;BMP_pressure;BME280_temperature;BME280_humidity;BME280_pressure;Samples;Min_cycle;Max_cycle;Signal;HPM_P1;HPM_P2
2024/02/23 00:02:14;;;;;;;23.38;15.43;;;;;;;6.25;100.00;97559.75;5045537;28;20033;-69
2024/02/23 00:04:41;;;;;;;6.65;5.70;;;;;;;6.21;100.00;97539.16;5043165;28;20136;-68
2024/02/23 00:07:06;;;;;;;3.35;1.50;;;;;;;6.28;100.00;97534.41;5043418;28;20101;-68
2024/02/23 00:09:32;;;;;;;1.10;1.00;;;;;;;6.26;100.00;97523.19;5043990;28;20068;-68
2024/02/23 00:11:59;;;;;;;0.80;0.80;;;;;;;6.15;100.00;97484.09;5043382;28;20148;-71
2024/02/23 00:14:24;;;;;;;1.38;1.05;;;;;;;6.31;100.00;97488.53;5043533;28;20241;-69
2024/02/23 00:16:49;;;;;;;0.75;0.70;;;;;;;6.19;100.00;97475.34;5043916;28;20120;-69
2024/02/23 00:19:17;;;;;;;0.77;0.60;;;;;;;6.27;100.00;97468.72;5042943;28;20060;-68
2024/02/23 00:21:47;;;;;;;0.70;0.70;;;;;;;6.27;100.00;97464.19;5044137;28;20034;-68
2024/02/23 00:24:13;;;;;;;1.33;0.60;;;;;;;6.35;100.00;97454.91;5044701;28;20014;-69
2024/02/23 00:26:38;;;;;;;0.77;0.70;;;;;;;6.28;100.00;97430.28;5044271;28;20492;-69
2024/02/23 00:29:04;;;;;;;0.70;0.60;;;;;;;6.24;100.00;97426.53;5043703;28;20048;-69
2024/02/23 00:31:29;;;;;;;0.60;0.60;;;;;;;6.34;100.00;97421.25;5010224;28;20048;-71
2024/02/23 00:33:54;;;;;;;0.50;0.40;;;;;;;6.18;100.00;97374.94;5043283;28;20022;-68
2024/02/23 00:36:20;;;;;;;1.95;0.45;;;;;;;6.30;100.00;97412.16;5042746;28;20025;-68
2024/02/23 00:38:45;;;;;;;0.50;0.50;;;;;;;6.29;100.00;97389.16;5042692;28;20543;-69
2024/02/23 00:41:11;;;;;;;0.85;0.50;;;;;;;6.27;100.00;97369.94;5043944;28;20075;-69
2024/02/23 00:43:40;;;;;;;0.63;0.35;;;;;;;6.31;100.00;97365.69;5042893;28;20492;-68
2024/02/23 00:46:06;;;;;;;0.30;0.30;;;;;;;6.34;100.00;97349.16;5043531;28;20025;-69
2024/02/23 00:48:31;;;;;;;0.40;0.30;;;;;;;6.24;100.00;97330.41;5042960;28;20043;-70
2024/02/23 00:50:57;;;;;;;0.40;0.30;;;;;;;6.39;100.00;97343.03;5042470;28;20108;-70
2024/02/23 00:53:22;;;;;;;1.08;0.35;;;;;;;6.38;100.00;97320.09;5043688;28;20037;-68
2024/02/23 00:55:47;;;;;;;0.60;0.30;;;;;;;6.21;100.00;97291.69;5042569;28;20053;-69
2024/02/23 00:58:13;;;;;;;2.20;0.30;;;;;;;6.29;100.00;97282.38;5042002;28;20446;-69
2024/02/23 01:00:39;;;;;;;0.57;0.40;;;;;;;6.43;100.00;97288.88;5042577;28;20029;-69
2024/02/23 01:03:05;;;;;;;0.63;0.40;;;;;;;6.40;100.00;97281.38;5025036;28;20143;-69
2024/02/23 01:05:30;;;;;;;0.40;0.30;;;;;;;6.51;100.00;97268.88;5041698;28;20032;-69
2024/02/23 01:07:56;;;;;;;0.68;0.30;;;;;;;6.52;100.00;97263.31;5042611;28;20033;-69
2024/02/23 01:10:21;;;;;;;0.50;0.30;;;;;;;6.45;100.00;97244.00;5041070;28;20044;-68
2024/02/23 01:12:47;;;;;;;0.38;0.30;;;;;;;6.56;100.00;97256.38;5040984;28;20025;-69
2024/02/23 01:15:14;;;;;;;0.70;0.40;;;;;;;6.49;100.00;97236.28;5042057;28;20029;-68
2024/02/23 01:17:39;;;;;;;0.32;0.32;;;;;;;6.52;100.00;97239.25;5041801;28;20029;-69
2024/02/23 01:20:05;;;;;;;0.50;0.30;;;;;;;6.56;100.00;97245.69;5042649;28;20034;-68
2024/02/23 01:22:31;;;;;;;0.63;0.40;;;;;;;6.59;100.00;97223.78;5042810;28;20026;-68
2024/02/23 01:24:56;;;;;;;0.93;0.40;;;;;;;6.54;100.00;97215.75;5042140;28;20042;-69
2024/02/23 01:27:22;;;;;;;0.47;0.35;;;;;;;6.53;100.00;97211.47;5040899;28;20079;-70
2024/02/23 01:29:48;;;;;;;1.65;0.40;;;;;;;6.47;100.00;97196.50;5042183;28;20021;-69
2024/02/23 01:32:13;;;;;;;0.20;0.20;;;;;;;6.34;100.00;97168.41;5040549;28;20026;-69
2024/02/23 01:34:39;;;;;;;0.50;0.30;;;;;;;6.40;100.00;97163.09;5041036;28;20017;-71
2024/02/23 01:37:04;;;;;;;0.35;0.30;;;;;;;6.35;100.00;97140.63;5024045;28;20061;-69
2024/02/23 01:39:30;;;;;;;0.55;0.50;;;;;;;6.52;100.00;97166.31;5040648;28;20053;-74
2024/02/23 01:41:55;;;;;;;0.50;0.47;;;;;;;6.48;100.00;97144.69;5042534;28;20028;-69
2024/02/23 01:44:21;;;;;;;0.52;0.40;;;;;;;6.48;100.00;97119.84;5041562;28;20037;-70
2024/02/23 01:46:47;;;;;;;0.63;0.30;;;;;;;6.30;100.00;97110.47;5039925;28;20030;-69
2024/02/23 01:49:13;;;;;;;0.40;0.40;;;;;;;6.51;100.00;97112.09;5041538;28;20038;-68
2024/02/23 01:51:39;;;;;;;0.30;0.30;;;;;;;6.39;100.00;97095.53;5024630;28;20040;-68
2024/02/23 01:54:05;;;;;;;0.32;0.32;;;;;;;6.49;100.00;97105.41;5041819;28;20033;-70
2024/02/23 01:56:32;;;;;;;1.10;0.40;;;;;;;6.54;100.00;97095.56;5040414;28;20033;-68
2024/02/23 01:58:59;;;;;;;2.67;0.40;;;;;;;6.50;100.00;97078.47;5041201;28;20033;-69
2024/02/23 02:01:25;;;;;;;1.38;0.30;;;;;;;6.41;100.00;97071.22;5023617;28;20029;-68
2024/02/23 02:03:51;;;;;;;0.50;0.35;;;;;;;6.53;100.00;97067.25;5039957;28;20128;-69
2024/02/23 02:06:17;;;;;;;1.05;0.40;;;;;;;6.50;100.00;97065.09;5023318;28;20085;-70
2024/02/23 02:08:42;;;;;;;0.50;0.30;;;;;;;6.52;100.00;97068.31;5041466;28;20021;-68
2024/02/23 02:11:08;;;;;;;0.40;0.20;;;;;;;6.55;100.00;97062.44;5040311;28;20029;-68
2024/02/23 02:13:33;;;;;;;0.28;0.20;;;;;;;6.62;100.00;97056.03;5040555;28;20048;-69
2024/02/23 02:16:01;;;;;;;0.40;0.40;;;;;;;6.61;100.00;97067.78;5041694;28;20037;-69
2024/02/23 02:18:27;;;;;;;0.43;0.20;;;;;;;6.63;100.00;97050.44;5041362;28;20041;-69
2024/02/23 02:20:57;;;;;;;0.20;0.20;;;;;;;6.70;100.00;97058.19;5039666;28;20033;-69
2024/02/23 02:23:23;;;;;;;0.70;0.30;;;;;;;6.57;100.00;97036.28;5041124;28;20592;-68
2024/02/23 02:25:58;;;;;;;2.13;0.40;;;;;;;6.65;100.00;97042.94;5041442;28;20446;-69
2024/02/23 02:28:25;;;;;;;0.88;0.30;;;;;;;6.69;100.00;97041.38;5039492;28;20022;-71
2024/02/23 02:30:52;;;;;;;0.60;0.40;;;;;;;6.43;100.00;96981.78;5041149;28;20025;-69
2024/02/23 02:33:17;;;;;;;0.45;0.30;;;;;;;6.73;100.00;97014.91;5023366;28;20025;-69
2024/02/23 02:35:43;;;;;;;0.50;0.30;;;;;;;6.78;100.00;96996.19;5040097;28;20059;-70
2024/02/23 02:38:10;;;;;;;0.52;0.30;;;;;;;6.80;100.00;97008.22;5039559;28;20060;-69
2024/02/23 02:40:36;;;;;;;0.90;0.15;;;;;;;6.79;100.00;96995.94;5040301;28;20034;-75
2024/02/23 02:43:01;;;;;;;0.43;0.10;;;;;;;6.82;100.00;96982.06;5039356;28;20071;-68
2024/02/23 02:45:27;;;;;;;0.10;0.10;;;;;;;6.74;100.00;96953.19;5040040;28;20063;-71
2024/02/23 02:47:52;;;;;;;0.47;0.20;;;;;;;6.90;100.00;96964.66;5022919;28;20137;-69
2024/02/23 02:50:17;;;;;;;0.40;0.20;;;;;;;6.80;100.00;96940.63;5042791;28;20374;-80
2024/02/23 02:52:43;;;;;;;0.22;0.20;;;;;;;6.88;100.00;96950.75;5042010;28;20029;-71
2024/02/23 02:55:08;;;;;;;0.30;0.20;;;;;;;6.89;100.00;96938.19;5036135;28;20403;-68
2024/02/23 02:57:35;;;;;;;0.70;0.20;;;;;;;6.90;100.00;96923.78;5034107;28;20033;-70
2024/02/23 03:00:04;;;;;;;0.63;0.20;;;;;;;6.94;100.00;96922.97;5042314;28;20033;-68
2024/02/23 03:02:30;;;;;;;0.75;0.20;;;;;;;6.83;100.00;96905.38;5046758;28;20021;-68
2024/02/23 03:04:55;;;;;;;0.75;0.20;;;;;;;6.96;100.00;96920.84;5046813;28;20112;-68
2024/02/23 03:07:22;;;;;;;0.45;0.20;;;;;;;7.01;100.00;96931.50;5047824;28;20141;-68
2024/02/23 03:09:49;;;;;;;0.13;0.10;;;;;;;7.03;100.00;96918.69;5048619;28;20112;-69
2024/02/23 03:12:14;;;;;;;0.50;0.20;;;;;;;7.03;100.00;96916.00;5014450;28;20048;-69
2024/02/23 03:14:40;;;;;;;0.20;0.10;;;;;;;7.06;100.00;96928.03;5046531;28;20029;-73
2024/02/23 03:17:07;;;;;;;1.67;0.17;;;;;;;7.06;100.00;96909.31;5046677;28;20044;-69
2024/02/23 03:19:32;;;;;;;0.40;0.20;;;;;;;7.07;100.00;96917.06;5046842;28;20029;-68
2024/02/23 03:21:58;;;;;;;0.20;0.10;;;;;;;7.11;100.00;96906.63;5047633;28;20061;-69
2024/02/23 03:24:23;;;;;;;0.57;0.30;;;;;;;7.17;100.00;96916.22;5030070;28;20135;-68
2024/02/23 03:26:49;;;;;;;0.40;0.30;;;;;;;7.00;100.00;96886.34;5048433;28;20369;-71
2024/02/23 03:29:14;;;;;;;0.57;0.32;;;;;;;7.23;100.00;96903.66;5046329;28;20610;-69
2024/02/23 03:31:39;;;;;;;0.30;0.30;;;;;;;7.24;100.00;96900.69;5046816;28;20029;-69
2024/02/23 03:34:05;;;;;;;0.88;0.30;;;;;;;7.31;100.00;96900.38;5045312;28;20030;-68
2024/02/23 03:36:30;;;;;;;0.98;0.40;;;;;;;7.35;100.00;96885.44;5046870;28;20125;-69
2024/02/23 03:38:56;;;;;;;3.70;0.68;;;;;;;7.31;100.00;96889.69;5045726;28;20500;-68
2024/02/23 03:41:21;;;;;;;6.22;0.80;;;;;;;7.44;100.00;96899.00;5045901;28;20041;-69
2024/02/23 03:43:46;;;;;;;1.95;0.52;;;;;;;7.33;100.00;96876.06;5047265;28;20033;-72
2024/02/23 03:46:12;;;;;;;4.55;0.60;;;;;;;7.48;100.00;96895.53;5030550;28;20025;-68
2024/02/23 03:48:38;;;;;;;4.82;0.80;;;;;;;7.41;100.00;96905.69;5041226;28;20504;-68
2024/02/23 03:51:05;;;;;;;8.68;1.52;;;;;;;7.32;100.00;96883.28;5040445;28;20033;-69
2024/02/23 03:53:30;;;;;;;8.50;1.52;;;;;;;7.27;100.00;96878.75;5044485;28;20026;-69
2024/02/23 03:55:57;;;;;;;6.78;1.80;;;;;;;7.04;100.00;96855.31;5046415;28;20040;-69
2024/02/23 03:58:22;;;;;;;10.30;2.33;;;;;;;7.14;100.00;96881.22;5045021;28;20041;-69
2024/02/23 04:00:47;;;;;;;7.80;1.90;;;;;;;7.09;100.00;96875.91;5045896;28;20575;-69
2024/02/23 04:03:13;;;;;;;8.27;2.15;;;;;;;7.07;100.00;96860.91;5045834;28;20025;-69
2024/02/23 04:05:38;;;;;;;7.38;1.88;;;;;;;7.06;100.00;96856.66;5046336;28;20064;-69
2024/02/23 04:08:04;;;;;;;11.05;2.05;;;;;;;7.03;100.00;96841.16;5044059;28;20026;-69
2024/02/23 04:10:29;;;;;;;12.57;2.10;;;;;;;6.99;100.00;96839.31;5044984;28;20037;-69
2024/02/23 04:12:55;;;;;;;11.40;2.40;;;;;;;6.92;100.00;96826.25;5039977;28;20072;-69
2024/02/23 04:15:20;;;;;;;8.30;1.73;;;;;;;6.88;100.00;96806.47;5026536;28;20025;-69
2024/02/23 04:17:46;;;;;;;14.50;2.10;;;;;;;6.89;100.00;96832.13;5043307;28;20504;-72
2024/02/23 04:20:12;;;;;;;7.40;1.65;;;;;;;6.84;100.00;96794.72;5041178;28;20038;-69
2024/02/23 04:22:38;;;;;;;9.65;1.58;;;;;;;6.85;100.00;96822.25;5041909;28;20018;-68
2024/02/23 04:25:04;;;;;;;12.73;1.73;;;;;;;6.67;100.00;96842.34;5042067;28;20381;-70
2024/02/23 04:27:30;;;;;;;11.82;1.75;;;;;;;6.47;100.00;96809.28;5042097;28;20029;-69
2024/02/23 04:29:56;;;;;;;13.57;1.75;;;;;;;6.23;100.00;96811.72;5023917;28;20227;-69
2024/02/23 04:32:21;;;;;;;15.90;1.83;;;;;;;6.02;100.00;96826.94;5041242;28;20052;-69
2024/02/23 04:34:47;;;;;;;14.82;2.55;;;;;;;5.97;100.00;96828.81;5041835;28;20452;-69
2024/02/23 04:37:12;;;;;;;18.13;2.92;;;;;;;5.85;100.00;96834.38;5024579;28;20053;-69
2024/02/23 04:39:38;;;;;;;16.17;3.05;;;;;;;5.62;100.00;96806.34;5040192;28;20054;-68
2024/02/23 04:42:04;;;;;;;17.45;2.65;;;;;;;5.56;100.00;96788.72;5021852;28;20092;-70
2024/02/23 04:44:29;;;;;;;19.05;2.55;;;;;;;5.58;100.00;96795.41;5023730;28;20060;-70
2024/02/23 04:46:55;;;;;;;16.05;2.53;;;;;;;5.37;100.00;96799.13;5026337;28;20037;-69
2024/02/23 04:49:20;;;;;;;13.90;2.10;;;;;;;5.44;100.00;96794.34;5042053;28;20029;-69
2024/02/23 04:51:45;;;;;;;19.60;2.30;;;;;;;5.33;100.00;96766.03;5043210;28;20033;-72
2024/02/23 04:54:11;;;;;;;13.98;2.80;;;;;;;5.24;100.00;96756.97;5041368;28;20029;-69
2024/02/23 04:56:37;;;;;;;22.60;3.28;;;;;;;5.30;100.00;96774.59;5043576;28;20052;-67
2024/02/23 04:59:03;;;;;;;14.40;2.17;;;;;;;5.17;100.00;96763.38;5041817;28;20091;-68
2024/02/23 05:01:28;;;;;;;13.95;2.45;;;;;;;5.22;100.00;96767.91;5038579;28;20104;-68
2024/02/23 05:03:54;;;;;;;14.77;1.90;;;;;;;5.17;100.00;96752.72;5040850;28;20033;-69
2024/02/23 05:06:19;;;;;;;16.88;2.35;;;;;;;5.11;100.00;96743.09;5022736;28;20057;-67
2024/02/23 05:08:44;;;;;;;14.48;2.40;;;;;;;4.94;100.00;96714.03;5041510;28;20025;-67
2024/02/23 05:11:10;;;;;;;20.40;2.85;;;;;;;4.88;100.00;96708.94;5039423;28;20029;-68
2024/02/23 05:13:36;;;;;;;19.90;2.67;;;;;;;4.95;100.00;96691.66;5022380;28;20021;-70
2024/02/23 05:16:02;;;;;;;18.55;2.17;;;;;;;4.87;100.00;96700.16;5023409;28;20044;-69
2024/02/23 05:18:27;;;;;;;16.92;2.63;;;;;;;4.86;100.00;96681.75;5038911;28;20025;-72
2024/02/23 05:20:53;;;;;;;19.02;2.70;;;;;;;4.82;100.00;96686.81;5039323;28;20033;-72
2024/02/23 05:23:18;;;;;;;17.40;3.03;;;;;;;4.78;100.00;96701.72;5037388;28;20060;-70
2024/02/23 05:25:44;;;;;;;24.00;2.83;;;;;;;4.75;100.00;96709.44;5036913;28;20036;-72
2024/02/23 05:28:09;;;;;;;24.38;2.95;;;;;;;4.71;100.00;96677.22;5035748;28;20040;-69
2024/02/23 05:30:35;;;;;;;21.77;3.42;;;;;;;4.68;100.00;96694.50;5039895;28;20451;-67
2024/02/23 05:33:03;;;;;;;26.23;3.58;;;;;;;4.69;100.00;96676.66;5019185;28;20433;-67
2024/02/23 05:35:29;;;;;;;22.52;3.72;;;;;;;4.62;100.00;96690.22;5020611;28;20041;-68
2024/02/23 05:37:55;;;;;;;26.48;3.75;;;;;;;4.54;100.00;96685.44;5020592;28;20619;-71
2024/02/23 05:40:21;;;;;;;22.02;3.38;;;;;;;4.62;100.00;96686.78;5020834;28;20065;-68
2024/02/23 05:42:46;;;;;;;19.77;3.25;;;;;;;4.56;100.00;96695.81;5019113;28;20099;-69
2024/02/23 05:45:12;;;;;;;16.30;2.28;;;;;;;4.40;100.00;96641.72;5020913;28;20037;-69
2024/02/23 05:47:40;;;;;;;29.58;3.38;;;;;;;4.39;100.00;96669.41;5020424;28;20517;-68
2024/02/23 05:50:07;;;;;;;19.73;2.30;;;;;;;4.45;100.00;96661.16;5019394;28;20030;-66
2024/02/23 05:52:33;;;;;;;17.60;2.38;;;;;;;4.47;100.00;96683.00;5017561;28;20128;-68
2024/02/23 05:55:02;;;;;;;15.13;2.35;;;;;;;4.44;100.00;96648.94;5018753;28;20033;-67
2024/02/23 05:57:27;;;;;;;16.77;3.15;;;;;;;4.43;100.00;96659.81;5019281;28;20421;-68
2024/02/23 05:59:55;;;;;;;14.32;2.35;;;;;;;4.38;100.00;96665.94;5035622;28;20037;-69
2024/02/23 06:02:20;;;;;;;21.65;2.67;;;;;;;4.27;100.00;96690.09;5010167;28;20089;-69
2024/02/23 06:04:45;;;;;;;24.73;2.88;;;;;;;4.39;100.00;96707.44;5033334;28;20061;-69
2024/02/23 06:07:12;;;;;;;20.60;2.75;;;;;;;4.15;100.00;96674.34;5019322;28;20579;-69
2024/02/23 06:09:38;;;;;;;19.25;2.53;;;;;;;4.29;100.00;96696.75;5018907;28;20026;-69
2024/02/23 06:12:05;;;;;;;22.27;3.47;;;;;;;4.28;100.00;96697.03;5017744;28;20049;-69
2024/02/23 06:14:31;;;;;;;32.05;4.07;;;;;;;4.26;100.00;96747.03;5032974;28;20038;-68
2024/02/23 06:16:56;;;;;;;22.17;3.13;;;;;;;4.18;100.00;96740.34;5018570;28;20034;-68
2024/02/23 06:19:22;;;;;;;25.98;3.33;;;;;;;4.20;100.00;96754.97;5019590;28;20267;-69
2024/02/23 06:21:49;;;;;;;31.25;3.97;;;;;;;4.22;100.00;96790.13;5036031;28;20040;-69
2024/02/23 06:24:14;;;;;;;30.40;3.70;;;;;;;4.21;100.00;96787.72;5037392;28;20017;-69
2024/02/23 06:26:39;;;;;;;25.48;3.38;;;;;;;4.11;100.00;96761.88;5038951;28;20791;-69
2024/02/23 06:29:05;;;;;;;28.38;4.93;;;;;;;4.19;100.00;96744.59;5021703;28;20504;-70
2024/02/23 06:31:33;;;;;;;29.42;3.75;;;;;;;4.17;100.00;96747.53;5039010;28;20032;-69
2024/02/23 06:33:59;;;;;;;28.85;3.28;;;;;;;4.16;100.00;96807.09;5020751;28;20047;-68
2024/02/23 06:36:24;;;;;;;23.35;3.00;;;;;;;4.20;100.00;96770.16;5038486;28;20455;-68
2024/02/23 06:38:49;;;;;;;22.08;3.45;;;;;;;4.18;100.00;96786.38;5039373;28;20057;-69
2024/02/23 06:41:15;;;;;;;23.75;3.63;;;;;;;4.21;100.00;96798.38;5038536;28;20032;-69
2024/02/23 06:43:40;;;;;;;19.45;2.72;;;;;;;4.06;100.00;96790.28;5036941;28;20369;-69
2024/02/23 06:46:08;;;;;;;16.92;2.70;;;;;;;4.27;100.00;96849.75;5035649;28;20041;-69
2024/02/23 06:48:34;;;;;;;14.45;2.47;;;;;;;4.30;100.00;96847.38;5036766;28;20025;-68
2024/02/23 06:50:59;;;;;;;14.32;2.03;;;;;;;4.32;100.00;96837.28;5036732;28;20530;-69
2024/02/23 06:53:25;;;;;;;9.55;1.83;;;;;;;4.23;100.00;96834.28;5020405;28;20026;-69
2024/02/23 06:55:50;;;;;;;18.50;2.88;;;;;;;4.31;100.00;96859.66;5037205;28;20060;-69
2024/02/23 06:58:16;;;;;;;21.80;3.28;;;;;;;4.17;100.00;96811.38;5036310;28;20033;-68
2024/02/23 07:00:42;;;;;;;19.23;2.83;;;;;;;4.25;100.00;96852.69;5019799;28;20041;-69
2024/02/23 07:03:07;;;;;;;23.58;3.05;;;;;;;4.38;100.00;96886.03;5035595;28;20021;-69
2024/02/23 07:05:35;;;;;;;17.75;2.38;;;;;;;4.36;100.00;96858.88;5019991;28;20561;-69
2024/02/23 07:08:01;;;;;;;25.63;3.70;;;;;;;4.48;100.00;96888.75;5035258;28;20017;-69
2024/02/23 07:10:27;;;;;;;22.52;3.38;;;;;;;4.48;100.00;96894.09;5033022;28;20092;-68
2024/02/23 07:12:53;;;;;;;19.77;3.45;;;;;;;4.47;100.00;96876.53;5017084;28;20033;-69
2024/02/23 07:15:19;;;;;;;25.63;3.58;;;;;;;4.58;100.00;96896.03;5034433;28;20032;-69
2024/02/23 07:17:45;;;;;;;24.80;4.05;;;;;;;4.58;100.00;96904.81;5017380;28;20408;-69
2024/02/23 07:20:11;;;;;;;20.35;3.42;;;;;;;4.57;100.00;96878.41;5036044;28;20022;-69
2024/02/23 07:22:37;;;;;;;17.33;2.63;;;;;;;4.35;100.00;96881.22;5034968;28;20025;-69
2024/02/23 07:25:03;;;;;;;18.35;3.38;;;;;;;4.51;100.00;96898.91;5037217;28;20029;-69
2024/02/23 07:27:30;;;;;;;21.48;3.17;;;;;;;4.57;100.00;96935.16;5041401;28;20025;-68
2024/02/23 07:29:55;;;;;;;18.88;3.42;;;;;;;4.64;100.00;96964.22;5038865;28;20484;-68
2024/02/23 07:32:21;;;;;;;24.38;3.58;;;;;;;4.60;100.00;96937.31;5036370;28;20037;-69
2024/02/23 07:34:46;;;;;;;23.40;3.58;;;;;;;4.69;100.00;96937.63;5035301;28;20048;-69
2024/02/23 07:37:12;;;;;;;21.83;3.25;;;;;;;4.70;100.00;96981.81;5036771;28;20068;-70
2024/02/23 07:39:37;;;;;;;28.73;4.70;;;;;;;4.75;100.00;96959.78;5036987;28;20046;-69
2024/02/23 07:42:04;;;;;;;29.77;4.32;;;;;;;4.53;100.00;96981.97;5003148;28;20060;-69
2024/02/23 07:44:29;;;;;;;22.92;3.50;;;;;;;4.74;100.00;97020.22;5019573;28;20124;-69
2024/02/23 07:46:55;;;;;;;17.58;3.13;;;;;;;4.76;100.00;97027.94;5022116;28;20463;-69
2024/02/23 07:49:22;;;;;;;17.38;3.35;;;;;;;4.70;100.00;97019.09;5022927;28;20025;-69
2024/02/23 07:51:48;;;;;;;27.17;3.97;;;;;;;4.28;100.00;96977.25;5038890;28;20411;-69
2024/02/23 07:54:13;;;;;;;26.77;4.20;;;;;;;4.75;100.00;97075.09;5040227;28;20097;-69
2024/02/23 07:56:38;;;;;;;19.50;3.10;;;;;;;4.76;100.00;97071.34;5040239;28;20056;-69
2024/02/23 07:59:04;;;;;;;19.95;3.92;;;;;;;4.82;100.00;97078.34;5041035;28;20053;-71
2024/02/23 08:01:29;;;;;;;22.15;2.95;;;;;;;4.80;100.00;97093.78;5040622;28;20422;-70
2024/02/23 08:03:55;;;;;;;22.17;2.88;;;;;;;4.83;100.00;97097.78;5022754;28;20056;-68
2024/02/23 08:06:21;;;;;;;19.95;3.80;;;;;;;4.90;100.00;97148.97;5040456;28;20021;-69
2024/02/23 08:08:46;;;;;;;13.82;2.30;;;;;;;4.97;100.00;97170.09;5023479;28;20033;-68
2024/02/23 08:11:13;;;;;;;18.17;2.97;;;;;;;5.03;100.00;97153.09;5039144;28;20040;-69
2024/02/23 08:13:39;;;;;;;15.77;2.35;;;;;;;5.09;100.00;97154.75;5039700;28;20032;-69
2024/02/23 08:16:05;;;;;;;16.80;2.83;;;;;;;5.13;100.00;97191.31;5038988;28;20022;-69
2024/02/23 08:18:31;;;;;;;18.58;2.20;;;;;;;5.18;100.00;97183.34;5039998;28;20032;-69
2024/02/23 08:20:57;;;;;;;15.50;2.85;;;;;;;5.23;100.00;97206.59;5042693;28;20029;-69
2024/02/23 08:23:22;;;;;;;15.07;2.20;;;;;;;4.97;100.00;97194.91;5025807;28;20064;-69
2024/02/23 08:25:48;;;;;;;17.27;2.55;;;;;;;5.25;100.00;97259.66;5039621;28;20038;-69
2024/02/23 08:28:13;;;;;;;15.27;2.42;;;;;;;5.22;100.00;97254.81;5040315;28;20108;-69
2024/02/23 08:30:39;;;;;;;18.48;2.85;;;;;;;5.17;100.00;97247.59;5038445;28;20036;-70
2024/02/23 08:33:05;;;;;;;14.38;2.53;;;;;;;5.18;100.00;97281.97;5021655;28;20057;-69
2024/02/23 08:35:30;;;;;;;15.43;2.83;;;;;;;5.18;100.00;97297.97;5039016;28;20017;-69
2024/02/23 08:37:56;;;;;;;15.50;2.50;;;;;;;5.17;100.00;97343.53;5040202;28;20045;-69
2024/02/23 08:40:21;;;;;;;21.75;3.22;;;;;;;5.17;100.00;97349.66;5040135;28;20101;-69
2024/02/23 08:42:47;;;;;;;13.07;3.08;;;;;;;5.09;100.00;97352.75;5039910;28;20017;-69
2024/02/23 08:45:13;;;;;;;17.40;3.00;;;;;;;5.15;100.00;97381.06;5038478;28;20033;-69
2024/02/23 08:47:39;;;;;;;15.73;2.55;;;;;;;5.11;100.00;97374.63;5038725;28;20029;-69
2024/02/23 08:50:05;;;;;;;16.05;2.88;;;;;;;5.12;100.00;97384.22;5038747;28;20028;-69
2024/02/23 08:52:31;;;;;;;21.33;3.30;;;;;;;5.05;100.00;97404.94;5039924;28;20033;-69
2024/02/23 08:54:56;;;;;;;23.98;3.42;;;;;;;5.05;100.00;97415.59;5021958;28;20033;-69
2024/02/23 08:57:23;;;;;;;20.38;3.10;;;;;;;5.05;100.00;97433.44;5021058;28;20037;-69
2024/02/23 08:59:51;;;;;;;18.08;3.20;;;;;;;5.09;100.00;97435.34;5039460;28;20033;-69
2024/02/23 09:02:16;;;;;;;22.50;3.47;;;;;;;5.05;100.00;97460.91;5038247;28;20029;-69
2024/02/23 09:04:44;;;;;;;22.15;2.75;;;;;;;5.12;100.00;97466.84;5039760;28;20091;-69
2024/02/23 09:07:10;;;;;;;19.15;3.03;;;;;;;5.23;100.00;97482.97;5022274;28;20036;-69
2024/02/23 09:09:36;;;;;;;18.02;2.95;;;;;;;5.24;100.00;97506.75;5022366;28;20064;-69
2024/02/23 09:12:01;;;;;;;18.05;2.95;;;;;;;5.21;100.00;97509.09;5042398;28;20052;-69
2024/02/23 09:14:27;;;;;;;12.75;2.20;;;;;;;5.24;100.00;97520.06;5042728;28;20045;-71
2024/02/23 09:16:52;;;;;;;12.48;2.50;;;;;;;5.34;100.00;97543.41;5041285;28;20037;-69
2024/02/23 09:19:19;;;;;;;21.17;2.83;;;;;;;5.36;100.00;97517.28;5020117;28;20029;-69
2024/02/23 09:21:45;;;;;;;16.35;2.30;;;;;;;5.45;100.00;97541.66;5039747;28;20037;-70
2024/02/23 09:24:10;;;;;;;18.00;2.60;;;;;;;5.52;100.00;97563.63;5043413;28;20032;-69
2024/02/23 09:26:36;;;;;;;22.15;3.20;;;;;;;5.56;100.00;97568.25;5039775;28;20029;-69
2024/02/23 09:29:01;;;;;;;20.55;3.13;;;;;;;5.58;100.00;97563.44;5039138;28;20038;-70
2024/02/23 09:31:28;;;;;;;16.30;3.47;;;;;;;5.63;100.00;97589.41;5042188;28;20033;-69
2024/02/23 09:33:55;;;;;;;21.27;3.47;;;;;;;5.73;100.00;97596.72;5025467;28;20026;-69
2024/02/23 09:36:20;;;;;;;24.52;3.63;;;;;;;5.77;100.00;97606.66;5022116;28;20064;-69
2024/02/23 09:38:47;;;;;;;22.02;3.25;;;;;;;5.88;100.00;97618.28;5039057;28;20045;-69
2024/02/23 09:41:22;;;;;;;24.80;3.58;;;;;;;5.77;100.00;97589.84;5021601;28;20029;-69
2024/02/23 09:43:53;;;;;;;;;;;;;;;6.02;100.00;97632.88;5039615;28;20021;-68
2024/02/23 09:46:19;;;;;;;15.65;3.05;;;;;;;6.12;100.00;97645.56;5038999;28;19924;-68
2024/02/23 09:48:45;;;;;;;14.50;2.78;;;;;;;6.16;100.00;97643.19;5036805;28;20044;-69
2024/02/23 09:51:12;;;;;;;18.63;3.40;;;;;;;5.99;100.00;97648.59;5037254;28;20033;-69
2024/02/23 09:53:38;;;;;;;22.80;3.58;;;;;;;6.22;100.00;97699.06;5038578;28;20369;-69
2024/02/23 09:56:05;;;;;;;15.23;2.50;;;;;;;6.17;100.00;97687.53;5037651;28;20060;-69
2024/02/23 09:58:35;;;;;;;15.52;3.33;;;;;;;6.24;100.00;97704.19;5021045;28;20649;-69
2024/02/23 10:01:02;;;;;;;19.52;2.97;;;;;;;6.23;100.00;97714.06;5037617;28;20033;-69
2024/02/23 10:03:30;;;;;;;21.58;3.05;;;;;;;6.38;100.00;97721.44;5038234;28;20029;-69
2024/02/23 10:05:59;;;;;;;20.50;3.35;;;;;;;6.44;100.00;97720.47;5037973;28;20156;-69
2024/02/23 10:08:25;;;;;;;18.58;3.33;;;;;;;6.70;100.00;97726.13;5037779;28;20029;-69
2024/02/23 10:10:51;;;;;;;15.52;2.80;;;;;;;6.76;100.00;97751.84;5035772;28;20032;-69
2024/02/23 10:13:20;;;;;;;18.88;3.85;;;;;;;6.96;100.00;97770.78;5034246;28;20033;-69
2024/02/23 10:15:50;;;;;;;20.13;3.13;;;;;;;7.01;100.00;97780.72;5036899;28;20029;-74
2024/02/23 10:18:16;;;;;;;16.90;2.95;;;;;;;6.97;100.00;97780.44;5038023;28;20052;-69
2024/02/23 10:20:42;;;;;;;15.82;3.25;;;;;;;7.14;100.00;97801.72;5036862;28;20032;-69
2024/02/23 10:23:08;;;;;;;26.05;4.38;;;;;;;6.97;100.00;97772.41;5037946;28;20049;-69
2024/02/23 10:25:35;;;;;;;18.85;3.38;;;;;;;7.32;100.00;97826.53;5038899;28;20044;-69
2024/02/23 10:28:01;;;;;;;25.75;3.67;;;;;;;7.20;100.00;97808.75;5020313;28;20120;-70
2024/02/23 10:30:27;;;;;;;25.98;4.25;;;;;;;7.32;100.00;97859.44;5037540;28;20029;-69
2024/02/23 10:32:56;;;;;;;27.88;4.85;;;;;;;7.37;100.00;97851.47;5036023;28;20332;-70
2024/02/23 10:35:22;;;;;;;20.77;3.33;;;;;;;7.39;100.00;97856.59;5037808;28;20081;-69
2024/02/23 10:37:51;;;;;;;23.00;3.63;;;;;;;7.44;100.00;97873.47;5023542;28;20049;-70
2024/02/23 10:40:18;;;;;;;22.00;4.05;;;;;;;7.46;100.00;97883.94;5042807;28;20052;-72
2024/02/23 10:42:51;;;;;;;14.77;2.88;;;;;;;7.56;100.00;97893.94;5040070;28;20138;-69
2024/02/23 10:45:21;;;;;;;25.67;3.92;;;;;;;7.73;100.00;97903.50;5040555;28;20022;-69
2024/02/23 10:47:48;;;;;;;22.13;3.92;;;;;;;7.86;100.00;97918.34;5036017;28;20101;-70
2024/02/23 10:50:14;;;;;;;24.25;3.90;;;;;;;7.83;100.00;97910.84;5039511;28;20435;-70
2024/02/23 10:52:42;;;;;;;23.45;3.85;;;;;;;7.89;100.00;97933.13;5040427;28;20037;-69
2024/02/23 10:55:12;;;;;;;21.67;3.50;;;;;;;7.98;100.00;97940.44;5040248;28;20021;-69
2024/02/23 10:57:39;;;;;;;19.48;3.55;;;;;;;8.02;100.00;97956.81;5022247;28;20037;-69
2024/02/23 11:00:09;;;;;;;25.10;3.55;;;;;;;7.85;100.00;97953.44;5038488;28;20029;-71
2024/02/23 11:02:50;;;;;;;22.20;4.03;;;;;;;7.59;100.00;97965.72;5040048;28;20041;-72
2024/02/23 11:05:16;;;;;;;19.35;3.13;;;;;;;7.44;100.00;97952.94;5022169;28;20123;-70
2024/02/23 11:07:42;;;;;;;16.90;3.03;;;;;;;7.42;100.00;97989.84;5039894;28;20049;-71
2024/02/23 11:10:09;;;;;;;18.98;3.63;;;;;;;7.25;100.00;98009.41;5038993;28;20032;-70
2024/02/23 11:12:35;;;;;;;23.73;4.10;;;;;;;7.08;100.00;98008.59;5038245;28;20033;-71
2024/02/23 11:15:02;;;;;;;17.65;3.08;;;;;;;7.12;100.00;98023.13;5039520;28;20033;-70
2024/02/23 11:17:30;;;;;;;19.30;2.72;;;;;;;7.17;100.00;98022.38;5038351;28;20065;-71
2024/02/23 11:19:56;;;;;;;17.38;2.95;;;;;;;7.13;100.00;98018.59;5015004;28;20080;-70
2024/02/23 11:22:32;;;;;;;23.05;3.60;;;;;;;7.07;100.00;98039.88;5018703;28;20145;-71
2024/02/23 11:25:03;;;;;;;22.67;3.00;;;;;;;7.00;100.00;98054.47;5002589;28;20084;-70